Time;durP1;ratioP1;P1;durP2;ratioP2;P2;SDS_P1;SDS_P2;PMS_P1;PMS_P2;Temp;Humidity;BMP_temperature;BMP_pressure;BME280_temperature;BME280_humidity;BME280_pressure;Samples;Min_cycle;Max_cycle;Signal;HPM_P1;HPM_P2
2022/08/16 00:01:56;;;;;;;12.05;7.60;;;;;;;20.91;67.08;100508.16;5101009;28;20031;-57
2022/08/16 00:04:21;;;;;;;9.63;7.00;;;;;;;20.90;67.00;100506.50;5106120;28;20068;-59
2022/08/16 00:06:47;;;;;;;10.48;7.82;;;;;;;20.71;68.06;100503.94;5108683;28;20067;-57
2022/08/16 00:09:12;;;;;;;8.18;7.38;;;;;;;20.78;67.95;100507.31;5106852;28;20107;-58
2022/08/16 00:11:40;;;;;;;10.82;7.57;;;;;;;20.64;68.21;100503.28;5106525;27;20522;-58
2022/08/16 00:14:10;;;;;;;10.00;6.65;;;;;;;20.65;67.33;100502.22;5106439;28;20110;-58
2022/08/16 00:16:36;;;;;;;10.43;7.30;;;;;;;20.67;67.28;100503.63;5107419;28;20106;-58
2022/08/16 00:19:03;;;;;;;9.65;6.72;;;;;;;20.65;67.05;100512.97;5103482;28;20107;-60
2022/08/16 00:21:28;;;;;;;11.18;7.20;;;;;;;20.72;66.98;100510.97;5101894;27;20036;-58
2022/08/16 00:23:53;;;;;;;9.32;7.00;;;;;;;20.68;66.97;100509.84;5101554;28;20385;-60
2022/08/16 00:26:19;;;;;;;10.02;6.80;;;;;;;20.68;67.03;100516.03;5107292;28;20031;-57
2022/08/16 00:28:44;;;;;;;11.20;6.78;;;;;;;20.67;66.65;100524.38;5107775;28;20348;-57
2022/08/16 00:31:09;;;;;;;9.27;6.63;;;;;;;20.68;66.75;100515.22;5104837;27;20038;-58
2022/08/16 00:33:34;;;;;;;12.93;6.80;;;;;;;20.65;66.58;100521.06;5105451;28;20101;-57
2022/08/16 00:36:00;;;;;;;9.40;7.50;;;;;;;20.60;66.91;100518.25;5095702;28;20028;-58
2022/08/16 00:38:25;;;;;;;7.43;6.22;;;;;;;20.65;66.59;100526.44;5101602;28;20027;-58
2022/08/16 00:40:52;;;;;;;10.18;7.30;;;;;;;20.64;66.58;100520.25;5110113;27;20028;-58
2022/08/16 00:43:22;;;;;;;10.32;7.50;;;;;;;20.70;67.02;100526.56;5085773;28;20035;-60
2022/08/16 00:45:57;;;;;;;10.40;7.80;;;;;;;20.60;66.79;100518.25;5105576;28;20056;-56
2022/08/16 00:48:22;;;;;;;12.20;8.30;;;;;;;20.58;67.02;100520.38;5107799;28;20038;-60
2022/08/16 00:50:48;;;;;;;9.35;8.32;;;;;;;20.51;68.39;100526.72;5096260;28;20043;-59
2022/08/16 00:53:15;;;;;;;10.18;8.13;;;;;;;20.43;69.21;100529.78;5091491;28;20063;-56
2022/08/16 00:55:45;;;;;;;10.20;8.32;;;;;;;20.31;68.58;100534.34;5084362;28;20464;-57
2022/08/16 00:58:12;;;;;;;11.05;8.23;;;;;;;20.36;68.86;100534.44;5098826;28;20472;-57
2022/08/16 01:00:38;;;;;;;10.63;7.95;;;;;;;20.45;68.42;100533.03;5098780;28;20028;-57
2022/08/16 01:03:09;;;;;;;10.57;8.73;;;;;;;20.35;68.31;100532.81;5103219;28;20043;-58
2022/08/16 01:05:35;;;;;;;13.02;8.80;;;;;;;20.31;68.23;100528.97;5101717;28;20117;-57
2022/08/16 01:08:02;;;;;;;13.75;9.27;;;;;;;20.35;67.80;100535.50;5105620;28;20047;-58
2022/08/16 01:10:31;;;;;;;12.52;9.18;;;;;;;20.38;68.33;100533.16;5099973;27;20496;-59
2022/08/16 01:12:58;;;;;;;14.50;9.85;;;;;;;20.35;68.79;100538.19;5101474;28;20028;-59
2022/08/16 01:15:25;;;;;;;14.80;9.38;;;;;;;20.42;68.19;100538.88;5105760;28;20552;-61
2022/08/16 01:17:51;;;;;;;14.75;9.68;;;;;;;20.40;68.77;100535.63;5105727;28;20031;-57
2022/08/16 01:20:20;;;;;;;15.05;9.50;;;;;;;20.32;68.97;100533.28;5099876;28;20394;-56
2022/08/16 01:22:58;;;;;;;14.70;10.25;;;;;;;20.32;69.00;100527.91;5106664;28;20837;-57
2022/08/16 01:25:32;;;;;;;14.05;9.48;;;;;;;20.31;69.02;100531.66;5104999;28;20035;-56
2022/08/16 01:28:02;;;;;;;13.48;10.13;;;;;;;20.24;69.35;100537.94;5096053;28;20046;-56
2022/08/16 01:30:31;;;;;;;12.80;10.32;;;;;;;20.20;69.48;100536.78;5094725;28;20036;-58
2022/08/16 01:33:00;;;;;;;14.73;10.27;;;;;;;20.18;69.54;100527.31;5093044;28;20036;-57
2022/08/16 01:35:31;;;;;;;13.88;10.82;;;;;;;20.19;69.76;100535.16;5101045;28;20035;-58
2022/08/16 01:38:17;;;;;;;12.20;10.65;;;;;;;20.15;69.36;100524.03;5096632;28;20055;-59
2022/08/16 01:40:42;;;;;;;15.00;10.60;;;;;;;20.16;69.70;100532.91;5098352;27;20032;-57
2022/08/16 01:43:08;;;;;;;16.85;11.00;;;;;;;20.12;69.75;100529.88;5098674;28;20088;-58
2022/08/16 01:45:34;;;;;;;16.60;10.85;;;;;;;20.10;69.82;100532.00;5097689;28;20131;-57
2022/08/16 01:48:00;;;;;;;18.38;11.65;;;;;;;20.05;69.93;100534.56;5104822;28;20035;-59
2022/08/16 01:50:25;;;;;;;19.15;11.27;;;;;;;20.09;69.82;100535.72;5103719;27;20035;-58
2022/08/16 01:52:50;;;;;;;17.30;11.80;;;;;;;20.06;70.01;100530.81;5105959;28;20038;-59
2022/08/16 01:55:21;;;;;;;18.67;11.48;;;;;;;20.05;70.12;100533.72;5105598;28;20046;-60
2022/08/16 01:57:47;;;;;;;18.15;11.25;;;;;;;19.98;69.90;100537.34;5087341;28;20354;-57
2022/08/16 02:00:14;;;;;;;19.08;11.18;;;;;;;19.97;69.79;100527.63;5101282;28;20613;-60
2022/08/16 02:02:40;;;;;;;14.77;10.60;;;;;;;19.98;70.13;100529.28;5104139;28;20039;-58
2022/08/16 02:05:05;;;;;;;16.75;11.02;;;;;;;20.01;70.03;100536.06;5102339;28;20434;-57
2022/08/16 02:07:31;;;;;;;18.77;11.55;;;;;;;19.90;70.24;100533.09;5104418;28;20081;-59
2022/08/16 02:09:57;;;;;;;17.02;11.20;;;;;;;19.90;70.30;100543.03;5106135;27;20027;-58
2022/08/16 02:12:23;;;;;;;17.80;11.20;;;;;;;19.89;70.26;100544.09;5106633;27;20479;-60
2022/08/16 02:14:49;;;;;;;16.95;11.95;;;;;;;19.77;70.75;100536.00;5096953;28;20043;-58
2022/08/16 02:17:15;;;;;;;16.45;11.93;;;;;;;19.68;70.87;100530.13;5101688;28;20036;-58
2022/08/16 02:19:42;;;;;;;19.88;12.50;;;;;;;19.65;71.09;100535.97;5107120;27;20038;-58
2022/08/16 02:22:11;;;;;;;17.50;12.40;;;;;;;19.63;71.06;100532.69;5110061;27;20050;-59
2022/08/16 02:24:37;;;;;;;17.35;11.90;;;;;;;19.63;71.24;100535.38;5100998;28;20027;-57
2022/08/16 02:27:03;;;;;;;17.40;12.45;;;;;;;19.58;71.36;100535.22;5105148;28;20551;-58
2022/08/16 02:29:29;;;;;;;16.35;12.43;;;;;;;19.55;71.55;100539.22;5104266;27;20039;-60
2022/08/16 02:31:54;;;;;;;16.77;12.70;;;;;;;19.51;71.72;100537.19;5110487;27;20080;-61
2022/08/16 02:34:20;;;;;;;16.23;12.68;;;;;;;19.51;71.70;100535.34;5104112;28;20034;-58
2022/08/16 02:36:45;;;;;;;15.32;12.68;;;;;;;19.45;71.60;100530.88;5102909;28;20027;-56
2022/08/16 02:39:13;;;;;;;18.70;13.20;;;;;;;19.41;72.03;100525.16;5097912;28;20438;-61
2022/08/16 02:41:40;;;;;;;15.90;13.10;;;;;;;19.39;72.14;100526.41;5107298;27;20044;-57
2022/08/16 02:44:06;;;;;;;16.30;12.52;;;;;;;19.39;72.16;100529.91;5103403;28;20066;-60
2022/08/16 02:46:32;;;;;;;18.02;13.45;;;;;;;19.24;72.47;100524.13;5105005;28;20063;-57
2022/08/16 02:48:59;;;;;;;17.45;13.77;;;;;;;19.22;72.69;100519.81;5093645;27;20130;-58
2022/08/16 02:51:24;;;;;;;16.85;13.27;;;;;;;19.20;72.89;100521.88;5107821;27;20032;-56
2022/08/16 02:53:51;;;;;;;16.95;13.77;;;;;;;19.24;72.94;100524.13;5103601;28;20039;-58
2022/08/16 02:56:17;;;;;;;18.40;14.32;;;;;;;19.16;73.28;100523.41;5103568;28;20130;-58
2022/08/16 02:58:46;;;;;;;17.63;13.77;;;;;;;19.14;73.29;100530.06;5096655;28;20062;-59
2022/08/16 03:01:12;;;;;;;19.17;13.88;;;;;;;19.06;73.50;100512.38;5100313;28;20122;-59
2022/08/16 03:03:38;;;;;;;20.92;14.35;;;;;;;19.01;73.97;100520.25;5100076;28;20240;-57
2022/08/16 03:06:03;;;;;;;18.02;13.95;;;;;;;18.93;74.00;100514.16;5103634;28;20031;-58
2022/08/16 03:08:28;;;;;;;18.95;14.20;;;;;;;18.91;74.31;100520.78;5103497;28;20034;-59
2022/08/16 03:10:54;;;;;;;16.92;13.57;;;;;;;18.93;74.19;100513.31;5098595;28;20083;-57
2022/08/16 03:13:19;;;;;;;18.55;14.40;;;;;;;18.89;74.66;100517.53;5103779;28;20056;-60
2022/08/16 03:15:45;;;;;;;18.23;13.55;;;;;;;18.86;74.98;100513.41;5102122;28;20030;-58
2022/08/16 03:18:12;;;;;;;17.13;14.38;;;;;;;18.84;74.84;100515.47;5101598;28;20357;-59
2022/08/16 03:20:37;;;;;;;17.90;14.27;;;;;;;18.77;75.03;100515.59;5110837;28;20045;-59
2022/08/16 03:23:06;;;;;;;20.15;14.40;;;;;;;18.73;75.20;100511.69;5095646;28;20464;-57
2022/08/16 03:25:33;;;;;;;18.58;14.10;;;;;;;18.75;75.15;100520.34;5099705;28;20032;-57
2022/08/16 03:27:58;;;;;;;19.10;14.45;;;;;;;18.66;75.22;100510.94;5102441;28;20036;-58
2022/08/16 03:30:27;;;;;;;18.33;14.27;;;;;;;18.61;75.45;100516.16;5100149;28;20032;-57
2022/08/16 03:32:53;;;;;;;20.75;13.82;;;;;;;18.63;75.45;100514.06;5100621;28;20051;-60
2022/08/16 03:35:22;;;;;;;18.05;14.30;;;;;;;18.53;75.73;100522.66;5100502;28;20028;-60
2022/08/16 03:37:48;;;;;;;18.65;14.25;;;;;;;18.58;75.68;100528.16;5085068;28;20050;-58
2022/08/16 03:40:14;;;;;;;17.67;13.98;;;;;;;18.66;75.64;100525.19;5100402;27;20032;-58
2022/08/16 03:42:39;;;;;;;19.77;14.18;;;;;;;18.68;75.55;100528.50;5105694;28;20100;-60
2022/08/16 03:45:05;;;;;;;19.02;13.77;;;;;;;18.63;75.74;100528.31;5106172;28;20503;-57
2022/08/16 03:47:31;;;;;;;20.30;15.27;;;;;;;18.55;76.27;100529.44;5107735;28;20111;-57
2022/08/16 03:49:57;;;;;;;17.65;14.48;;;;;;;18.56;76.02;100530.28;5102735;27;20127;-61
2022/08/16 03:52:23;;;;;;;20.52;14.98;;;;;;;18.59;75.88;100539.75;5100704;28;20457;-56
2022/08/16 03:54:49;;;;;;;20.05;15.30;;;;;;;18.56;76.05;100535.63;5104238;28;20058;-60
2022/08/16 03:57:14;;;;;;;20.80;15.77;;;;;;;18.54;76.47;100540.38;5106901;28;20499;-56
2022/08/16 03:59:40;;;;;;;21.90;15.68;;;;;;;18.57;76.58;100553.38;5098953;27;20033;-57
2022/08/16 04:02:05;;;;;;;19.65;15.70;;;;;;;18.53;76.98;100542.28;5095720;28;20142;-58
2022/08/16 04:04:31;;;;;;;20.52;16.33;;;;;;;18.54;76.76;100543.06;5104149;28;20026;-57
2022/08/16 04:06:57;;;;;;;20.33;16.10;;;;;;;18.60;76.68;100546.75;5095039;28;20039;-57
2022/08/16 04:09:22;;;;;;;21.60;17.13;;;;;;;18.56;76.91;100554.44;5103664;28;20036;-59
2022/08/16 04:11:47;;;;;;;22.00;17.23;;;;;;;18.55;77.00;100556.28;5101803;28;20035;-57
2022/08/16 04:14:13;;;;;;;20.17;16.85;;;;;;;18.65;76.68;100561.13;5103276;28;20023;-61
2022/08/16 04:16:38;;;;;;;22.80;16.98;;;;;;;18.63;76.59;100557.03;5102128;28;20114;-60
2022/08/16 04:19:03;;;;;;;22.45;17.35;;;;;;;18.64;76.58;100558.66;5097623;28;20040;-57
2022/08/16 04:21:33;;;;;;;21.17;16.50;;;;;;;18.64;76.65;100554.13;5116564;27;20479;-56
2022/08/16 04:23:59;;;;;;;25.45;17.75;;;;;;;18.61;76.73;100554.59;5097616;28;20184;-59
2022/08/16 04:26:25;;;;;;;21.08;17.35;;;;;;;18.64;76.73;100556.81;5099377;28;20035;-58
2022/08/16 04:28:50;;;;;;;21.15;16.85;;;;;;;18.67;76.67;100561.75;5100113;28;20110;-60
2022/08/16 04:31:15;;;;;;;24.50;17.40;;;;;;;18.66;76.81;100557.41;5108876;27;20042;-61
2022/08/16 04:33:41;;;;;;;23.20;17.23;;;;;;;18.68;76.77;100560.72;5105062;28;20104;-58
2022/08/16 04:36:06;;;;;;;21.65;17.70;;;;;;;18.65;77.12;100561.13;5099745;28;20047;-60
2022/08/16 04:38:32;;;;;;;22.75;17.42;;;;;;;18.64;77.33;100559.50;5099263;28;20491;-55
2022/08/16 04:40:57;;;;;;;24.38;17.25;;;;;;;18.66;77.30;100554.72;5101851;28;20123;-59
2022/08/16 04:43:22;;;;;;;22.25;17.65;;;;;;;18.65;77.47;100566.50;5094672;28;20031;-56
2022/08/16 04:45:48;;;;;;;22.30;16.88;;;;;;;18.66;77.37;100568.16;5094950;28;20067;-61
2022/08/16 04:48:13;;;;;;;22.42;18.05;;;;;;;18.67;77.24;100559.06;5099452;28;20043;-57
2022/08/16 04:50:39;;;;;;;24.25;17.60;;;;;;;18.65;77.22;100565.72;5098377;28;20101;-58
2022/08/16 04:53:04;;;;;;;20.70;17.80;;;;;;;18.69;77.29;100570.41;5100302;28;20472;-59
2022/08/16 04:55:30;;;;;;;23.83;18.25;;;;;;;18.69;77.27;100570.41;5103999;28;20095;-58
2022/08/16 04:57:56;;;;;;;24.13;18.15;;;;;;;18.66;77.38;100560.09;5105636;28;20373;-58
2022/08/16 05:00:32;;;;;;;23.67;17.40;;;;;;;18.71;77.01;100569.34;5094853;28;20086;-58
2022/08/16 05:03:01;;;;;;;21.92;18.15;;;;;;;18.72;77.25;100576.38;5100134;28;20039;-58
2022/08/16 05:05:26;;;;;;;25.75;18.65;;;;;;;18.71;77.26;100574.72;5103930;28;20035;-58
2022/08/16 05:07:51;;;;;;;23.10;18.80;;;;;;;18.77;76.85;100573.84;5100650;28;20913;-58
2022/08/16 05:10:17;;;;;;;24.50;17.75;;;;;;;18.82;76.66;100571.31;5100913;28;20035;-58
2022/08/16 05:12:42;;;;;;;22.33;17.63;;;;;;;18.84;76.66;100574.59;5099822;28;20027;-58
2022/08/16 05:15:09;;;;;;;22.50;17.77;;;;;;;18.78;76.73;100581.69;5095369;28;20468;-57
2022/08/16 05:17:35;;;;;;;22.65;17.55;;;;;;;18.77;77.01;100579.22;5101335;28;20859;-60
2022/08/16 05:20:01;;;;;;;24.35;18.65;;;;;;;18.74;76.91;100580.47;5092982;28;20456;-57
2022/08/16 05:22:26;;;;;;;22.27;18.42;;;;;;;18.73;76.92;100584.22;5100029;28;20035;-57
2022/08/16 05:24:52;;;;;;;25.05;18.58;;;;;;;18.77;77.14;100595.31;5100368;28;20093;-57
2022/08/16 05:27:17;;;;;;;22.65;18.50;;;;;;;18.77;77.19;100589.94;5093004;28;20039;-57
2022/08/16 05:29:43;;;;;;;26.55;18.85;;;;;;;18.72;77.74;100592.47;5097908;28;20024;-58
2022/08/16 05:32:08;;;;;;;24.42;18.73;;;;;;;18.68;77.78;100598.31;5101042;28;20027;-59
2022/08/16 05:34:34;;;;;;;23.33;19.33;;;;;;;18.63;77.54;100590.09;5103685;28;20040;-57
2022/08/16 05:36:59;;;;;;;23.30;19.05;;;;;;;18.64;77.54;100591.72;5103513;28;20024;-58
2022/08/16 05:39:26;;;;;;;23.40;18.70;;;;;;;18.62;77.79;100599.19;5101191;28;20118;-60
2022/08/16 05:41:51;;;;;;;24.02;19.25;;;;;;;18.66;77.42;100603.06;5095832;28;20126;-60
2022/08/16 05:44:19;;;;;;;30.40;19.40;;;;;;;18.71;77.14;100604.28;5104135;28;20658;-61
2022/08/16 05:46:44;;;;;;;22.50;18.52;;;;;;;18.72;77.32;100605.91;5067124;28;1011941;-57
2022/08/16 05:49:15;;;;;;;22.90;19.23;;;;;;;18.75;77.37;100608.16;5099681;28;20042;-57
2022/08/16 05:51:42;;;;;;;24.10;18.67;;;;;;;18.76;77.31;100610.59;5100077;28;20062;-61
2022/08/16 05:54:09;;;;;;;25.77;19.95;;;;;;;18.77;77.08;100614.13;5104693;28;20035;-58
2022/08/16 05:56:34;;;;;;;23.02;19.05;;;;;;;18.79;76.62;100604.81;5102839;28;20043;-58
2022/08/16 05:59:00;;;;;;;22.23;18.70;;;;;;;18.83;76.48;100605.19;5103265;28;20461;-60
2022/08/16 06:01:25;;;;;;;20.50;17.67;;;;;;;18.89;76.69;100612.34;5114194;27;20032;-58
2022/08/16 06:03:50;;;;;;;21.88;18.20;;;;;;;18.93;76.75;100610.88;5104362;27;20059;-60
2022/08/16 06:06:16;;;;;;;24.38;19.55;;;;;;;18.93;75.98;100621.63;5102174;28;20031;-61
2022/08/16 06:08:42;;;;;;;25.15;18.77;;;;;;;18.98;76.13;100625.50;5104973;28;20050;-57
2022/08/16 06:11:08;;;;;;;21.40;17.35;;;;;;;19.04;75.72;100627.34;5098774;28;20864;-58
2022/08/16 06:13:36;;;;;;;22.92;18.45;;;;;;;19.10;75.72;100626.44;5101529;28;20033;-57
2022/08/16 06:16:01;;;;;;;21.98;18.67;;;;;;;19.15;75.50;100617.69;5102493;28;20104;-57
2022/08/16 06:18:26;;;;;;;22.88;18.60;;;;;;;19.22;74.59;100623.81;5100475;28;20488;-57
2022/08/16 06:20:52;;;;;;;23.65;18.20;;;;;;;19.20;74.89;100626.72;5090483;28;20066;-58
2022/08/16 06:23:17;;;;;;;24.05;18.40;;;;;;;19.28;73.93;100628.28;5099861;28;20031;-61
2022/08/16 06:25:42;;;;;;;22.15;18.25;;;;;;;19.27;73.86;100632.03;5093133;28;20057;-57
2022/08/16 06:28:10;;;;;;;21.63;18.30;;;;;;;19.29;73.85;100631.81;5097240;28;20039;-61
2022/08/16 06:30:39;;;;;;;21.50;17.58;;;;;;;19.32;73.28;100640.25;5097594;28;20046;-57
2022/08/16 06:33:05;;;;;;;23.88;17.58;;;;;;;19.36;73.67;100635.22;5097407;28;20038;-57
2022/08/16 06:35:30;;;;;;;22.20;18.42;;;;;;;19.41;73.47;100638.06;5101692;28;20027;-57
2022/08/16 06:37:56;;;;;;;25.05;18.10;;;;;;;19.43;72.98;100644.03;5092857;28;20027;-61
2022/08/16 06:40:23;;;;;;;22.20;18.13;;;;;;;19.43;72.98;100630.59;5094936;28;20055;-57
2022/08/16 06:42:51;;;;;;;21.92;17.92;;;;;;;19.47;73.18;100645.22;5078720;28;20135;-58
2022/08/16 06:45:16;;;;;;;23.45;18.95;;;;;;;19.53;72.96;100640.00;5102366;28;20104;-57
2022/08/16 06:47:42;;;;;;;21.25;18.38;;;;;;;19.58;72.86;100642.81;5078485;28;20063;-57
2022/08/16 06:50:08;;;;;;;22.63;18.42;;;;;;;19.65;72.21;100643.56;5099836;28;20027;-57
2022/08/16 06:52:35;;;;;;;22.17;18.25;;;;;;;19.68;72.04;100648.47;5100778;28;20108;-58
2022/08/16 06:55:03;;;;;;;21.83;18.00;;;;;;;19.69;72.37;100647.41;5102502;28;20027;-57
2022/08/16 06:57:28;;;;;;;20.83;17.27;;;;;;;19.71;72.40;100636.44;5103006;28;20460;-58
2022/08/16 06:59:53;;;;;;;22.15;18.17;;;;;;;19.78;72.20;100642.53;5098705;27;20035;-57
2022/08/16 07:02:18;;;;;;;23.00;18.42;;;;;;;19.81;71.80;100646.66;5103722;28;20023;-58
2022/08/16 07:04:44;;;;;;;26.35;18.77;;;;;;;19.84;71.63;100647.00;5101119;28;20407;-60
2022/08/16 07:07:09;;;;;;;23.67;18.67;;;;;;;19.87;71.75;100653.81;5104004;28;20151;-59
2022/08/16 07:09:34;;;;;;;24.13;19.45;;;;;;;19.91;71.94;100641.56;5099082;28;20027;-59
2022/08/16 07:12:00;;;;;;;26.58;19.50;;;;;;;20.02;72.27;100654.25;5097536;28;20490;-60
2022/08/16 07:14:25;;;;;;;25.90;18.90;;;;;;;20.04;71.23;100651.34;5099132;28;20038;-61
2022/08/16 07:16:50;;;;;;;23.30;18.58;;;;;;;20.09;70.90;100659.53;5098322;28;20074;-60
2022/08/16 07:19:16;;;;;;;25.90;19.33;;;;;;;20.16;71.29;100660.28;5098501;28;20183;-61
2022/08/16 07:21:42;;;;;;;22.88;18.13;;;;;;;20.24;71.38;100666.38;5099631;28;20031;-59
2022/08/16 07:24:08;;;;;;;23.27;19.02;;;;;;;20.30;70.52;100665.44;5099561;28;20036;-58
2022/08/16 07:26:33;;;;;;;23.67;18.55;;;;;;;20.40;70.67;100670.25;5096798;28;20384;-60
2022/08/16 07:28:59;;;;;;;22.77;19.15;;;;;;;20.47;69.90;100670.97;5102797;28;20476;-60
2022/08/16 07:31:24;;;;;;;22.50;19.23;;;;;;;20.49;69.85;100668.06;5114710;28;20040;-56
2022/08/16 07:33:50;;;;;;;24.67;18.35;;;;;;;20.55;70.09;100662.56;5101959;28;20126;-59
2022/08/16 07:36:16;;;;;;;23.00;18.17;;;;;;;20.65;69.84;100666.53;5102160;28;20031;-57
2022/08/16 07:38:41;;;;;;;24.10;18.48;;;;;;;20.72;69.74;100667.22;5096422;28;20030;-60
2022/08/16 07:41:07;;;;;;;22.88;18.15;;;;;;;20.78;69.49;100671.69;5099687;28;20039;-57
2022/08/16 07:43:33;;;;;;;21.42;17.98;;;;;;;20.92;69.22;100676.91;5103232;28;20148;-59
2022/08/16 07:45:59;;;;;;;21.30;17.45;;;;;;;21.04;69.04;100679.56;5099135;28;20135;-60
2022/08/16 07:48:25;;;;;;;26.02;18.00;;;;;;;21.07;68.48;100679.13;5102054;28;20043;-59
2022/08/16 07:50:51;;;;;;;21.70;17.40;;;;;;;21.14;68.08;100684.38;5100372;28;20032;-58
2022/08/16 07:53:17;;;;;;;22.55;17.08;;;;;;;21.18;68.32;100674.75;5096520;28;20042;-57
2022/08/16 07:55:42;;;;;;;22.50;16.55;;;;;;;21.27;68.28;100684.13;5099564;28;20465;-60
2022/08/16 07:58:08;;;;;;;24.73;15.48;;;;;;;21.34;67.74;100690.22;5102403;28;20035;-57
2022/08/16 08:00:33;;;;;;;20.67;15.13;;;;;;;21.43;66.81;100681.75;5100964;28;20035;-58
2022/08/16 08:02:59;;;;;;;22.10;16.95;;;;;;;21.51;65.80;100684.06;5098909;28;20042;-58
2022/08/16 08:05:26;;;;;;;23.45;16.88;;;;;;;21.52;65.66;100683.03;5099790;28;20036;-57
2022/08/16 08:07:52;;;;;;;21.70;15.40;;;;;;;21.57;65.22;100688.50;5103350;28;20035;-59
2022/08/16 08:10:19;;;;;;;23.08;14.90;;;;;;;21.61;65.11;100689.66;5099513;28;20043;-58
2022/08/16 08:12:47;;;;;;;18.77;14.20;;;;;;;21.67;64.08;100697.88;5099711;28;21743;-58
2022/08/16 08:15:13;;;;;;;19.35;13.68;;;;;;;21.75;63.92;100697.50;5096746;28;20042;-57
2022/08/16 08:17:39;;;;;;;18.98;13.10;;;;;;;21.86;63.58;100696.66;5103015;28;20035;-57
2022/08/16 08:20:07;;;;;;;19.00;14.15;;;;;;;21.89;62.29;100701.56;5101534;28;20036;-60
2022/08/16 08:22:33;;;;;;;18.92;13.00;;;;;;;21.95;62.44;100702.47;5102587;28;20512;-58
2022/08/16 08:24:58;;;;;;;17.63;12.73;;;;;;;22.06;62.26;100703.50;5093640;28;20114;-57
2022/08/16 08:27:24;;;;;;;19.02;13.63;;;;;;;22.10;60.92;100696.53;5100488;28;20032;-59
2022/08/16 08:29:50;;;;;;;19.63;12.70;;;;;;;22.14;61.24;100702.28;5110970;27;20472;-58
2022/08/16 08:32:15;;;;;;;17.33;11.60;;;;;;;22.23;60.46;100700.81;5107019;28;20050;-59
2022/08/16 08:34:40;;;;;;;17.50;11.35;;;;;;;22.34;59.93;100695.59;5106980;28;20102;-60
2022/08/16 08:37:06;;;;;;;15.07;11.35;;;;;;;22.43;59.63;100705.75;5101403;28;20053;-57
2022/08/16 08:39:33;;;;;;;16.50;12.40;;;;;;;22.53;58.25;100712.41;5086115;27;20390;-57
2022/08/16 08:41:59;;;;;;;21.38;12.00;;;;;;;22.53;58.64;100698.91;5106392;27;20407;-58
2022/08/16 08:44:24;;;;;;;16.05;11.45;;;;;;;22.64;59.07;100711.53;5075922;28;20028;-59
2022/08/16 08:46:50;;;;;;;16.00;10.75;;;;;;;22.70;58.70;100710.53;5101397;28;20491;-61
2022/08/16 08:49:15;;;;;;;17.95;11.43;;;;;;;22.77;58.46;100704.16;5096205;28;20043;-60
2022/08/16 08:51:41;;;;;;;13.90;9.48;;;;;;;22.91;58.32;100710.88;5101247;28;20032;-58
2022/08/16 08:54:07;;;;;;;16.40;11.30;;;;;;;22.96;57.64;100708.25;5097076;28;20079;-57
2022/08/16 08:56:36;;;;;;;13.00;10.07;;;;;;;23.02;57.02;100705.59;5102585;28;20044;-58
2022/08/16 08:59:05;;;;;;;14.95;10.63;;;;;;;23.07;57.20;100711.06;5096492;28;20487;-61
2022/08/16 09:01:34;;;;;;;14.68;9.90;;;;;;;23.20;57.11;100712.59;5089638;28;20028;-57
2022/08/16 09:04:01;;;;;;;16.08;10.43;;;;;;;23.23;56.04;100707.50;5099601;28;20040;-57
2022/08/16 09:06:26;;;;;;;16.58;9.90;;;;;;;23.36;55.48;100710.94;5102817;28;20046;-57
2022/08/16 09:08:51;;;;;;;15.00;9.23;;;;;;;23.46;54.54;100719.22;5106324;28;20027;-59
2022/08/16 09:11:17;;;;;;;13.65;9.38;;;;;;;23.49;53.94;100721.41;5094732;28;20035;-57
2022/08/16 09:13:43;;;;;;;14.52;8.82;;;;;;;23.56;54.49;100723.09;5101831;28;20071;-58
2022/08/16 09:16:09;;;;;;;13.27;8.77;;;;;;;23.57;54.27;100724.72;5106588;28;20059;-57
2022/08/16 09:18:34;;;;;;;15.38;9.05;;;;;;;23.59;54.66;100719.91;5105294;28;20391;-58
2022/08/16 09:20:59;;;;;;;12.65;8.63;;;;;;;23.64;54.60;100728.09;5100206;28;20793;-58
2022/08/16 09:23:25;;;;;;;13.20;8.00;;;;;;;23.75;53.72;100729.00;5106483;28;20036;-58
2022/08/16 09:25:50;;;;;;;14.23;7.80;;;;;;;23.88;51.88;100722.41;5105440;28;20049;-57
2022/08/16 09:28:16;;;;;;;14.98;7.57;;;;;;;23.94;51.52;100724.09;5098248;28;20503;-59
2022/08/16 09:30:42;;;;;;;10.80;7.20;;;;;;;24.01;50.77;100730.13;5102080;28;20039;-57
2022/08/16 09:33:08;;;;;;;11.32;7.72;;;;;;;24.09;50.43;100728.03;5106493;28;20027;-58
2022/08/16 09:35:35;;;;;;;12.45;7.90;;;;;;;24.14;50.02;100725.41;5099822;28;20043;-58
2022/08/16 09:38:01;;;;;;;10.32;7.00;;;;;;;24.21;50.32;100726.00;5095887;28;20027;-57
2022/08/16 09:40:27;;;;;;;8.90;7.30;;;;;;;24.29;49.38;100730.97;5089746;28;20035;-59
2022/08/16 09:42:54;;;;;;;11.82;6.80;;;;;;;24.37;50.01;100735.09;5106506;28;20028;-58
2022/08/16 09:45:20;;;;;;;10.75;6.80;;;;;;;24.49;49.15;100725.97;5099374;28;20384;-58
2022/08/16 09:47:46;;;;;;;11.88;6.65;;;;;;;24.58;48.48;100730.66;5103957;28;20028;-58
2022/08/16 09:50:13;;;;;;;9.00;6.20;;;;;;;24.65;48.59;100724.19;5099732;28;20035;-59
2022/08/16 09:52:39;;;;;;;9.43;6.57;;;;;;;24.79;48.88;100714.56;5105051;28;20027;-59
2022/08/16 09:55:07;;;;;;;8.63;7.03;;;;;;;24.89;48.40;100721.16;5104847;28;20503;-58
2022/08/16 09:57:33;;;;;;;8.02;6.40;;;;;;;25.05;47.27;100722.88;5104402;28;20046;-57
2022/08/16 10:00:00;;;;;;;10.32;6.43;;;;;;;25.17;46.96;100725.41;5092912;28;20031;-59
2022/08/16 10:02:26;;;;;;;9.10;5.68;;;;;;;25.34;46.63;100719.78;5103217;28;20039;-58
2022/08/16 10:04:51;;;;;;;11.57;5.97;;;;;;;25.44;45.18;100723.59;5104904;28;20028;-57
2022/08/16 10:07:17;;;;;;;9.48;5.63;;;;;;;25.55;46.12;100730.75;5104823;28;20945;-61
2022/08/16 10:09:43;;;;;;;10.07;6.00;;;;;;;25.47;44.60;100725.81;5099895;28;20118;-61
2022/08/16 10:14:53;;;;;;;7.82;5.10;;;;;;;25.37;44.37;100730.09;5105699;28;20131;-61
2022/08/16 10:17:20;;;;;;;11.60;5.55;;;;;;;25.39;44.06;100718.97;5091116;28;20115;-60
2022/08/16 10:19:45;;;;;;;10.02;5.60;;;;;;;25.43;42.67;100728.25;5106109;27;20545;-60
2022/08/16 10:22:11;;;;;;;8.23;5.20;;;;;;;25.51;43.50;100724.22;5103730;28;20039;-57
2022/08/16 10:24:36;;;;;;;10.15;5.00;;;;;;;25.62;43.79;100725.91;5105190;28;20031;-61
2022/08/16 10:27:02;;;;;;;10.93;5.30;;;;;;;25.68;43.91;100731.34;5098610;28;20051;-61
2022/08/16 10:29:27;;;;;;;8.88;5.30;;;;;;;25.76;43.32;100725.41;5103928;28;20023;-58
2022/08/16 10:31:53;;;;;;;11.57;5.68;;;;;;;25.83;43.06;100727.84;5104663;28;20045;-57
2022/08/16 10:34:18;;;;;;;13.10;4.95;;;;;;;25.79;43.81;100725.69;5079828;28;20031;-60
2022/08/16 10:36:43;;;;;;;8.40;5.38;;;;;;;25.75;43.29;100726.50;5100837;28;20024;-58
2022/08/16 10:39:08;;;;;;;7.57;5.03;;;;;;;25.79;43.44;100725.69;5101483;28;20051;-57
2022/08/16 10:41:34;;;;;;;7.93;4.85;;;;;;;25.97;43.08;100730.88;5100886;28;20031;-58
2022/08/16 10:43:59;;;;;;;9.23;5.13;;;;;;;26.16;43.14;100728.47;5073964;28;20027;-57
2022/08/16 10:46:25;;;;;;;8.57;5.47;;;;;;;26.24;42.20;100730.69;5099152;28;20126;-59
2022/08/16 10:48:51;;;;;;;8.90;5.43;;;;;;;26.32;43.22;100732.88;5104592;28;20060;-59
2022/08/16 10:51:16;;;;;;;10.07;6.05;;;;;;;26.51;43.03;100734.22;5082825;28;20114;-59
2022/08/16 10:53:42;;;;;;;8.52;5.18;;;;;;;26.63;41.24;100729.31;5099588;28;20031;-60
2022/08/16 10:56:09;;;;;;;7.72;5.15;;;;;;;26.75;40.95;100723.63;5103156;28;20032;-58
2022/08/16 10:58:37;;;;;;;7.63;4.90;;;;;;;26.97;41.87;100736.13;5101985;28;20031;-58
2022/08/16 11:01:05;;;;;;;7.80;5.00;;;;;;;26.96;39.99;100740.75;5092773;28;20066;-60
2022/08/16 11:03:30;;;;;;;7.03;5.40;;;;;;;27.03;40.96;100739.66;5103005;28;20035;-61
2022/08/16 11:05:55;;;;;;;10.13;5.57;;;;;;;26.99;40.84;100745.63;5104016;28;20051;-57
2022/08/16 11:08:22;;;;;;;7.50;5.47;;;;;;;26.92;40.55;100742.38;5103991;28;20446;-58
2022/08/16 11:10:48;;;;;;;7.55;5.25;;;;;;;27.03;39.61;100739.66;5102715;28;20047;-58